Time;durP1;ratioP1;P1;durP2;ratioP2;P2;SDS_P1;SDS_P2;PMS_P1;PMS_P2;Temp;Humidity;BMP_temperature;BMP_pressure;BME280_temperature;BME280_humidity;BME280_pressure;Samples;Min_cycle;Max_cycle;Signal;HPM_P1;HPM_P2
2021/01/27 00:01:11;;;;;;;;;;;1.00;91.90;;;;;;5035238;28;20341;-82
2021/01/27 00:03:38;;;;;;;4.38;1.55;;;0.90;91.90;;;;;;5024453;28;19925;-84
2021/01/27 00:06:05;;;;;;;3.53;1.88;;;0.90;92.10;;;;;;5023075;28;20061;-86
2021/01/27 00:08:32;;;;;;;5.68;2.35;;;0.90;92.30;;;;;;5005276;28;20160;-84
2021/01/27 00:10:59;;;;;;;7.60;2.10;;;0.80;92.40;;;;;;5045675;28;20349;-83
2021/01/27 00:13:27;;;;;;;9.70;2.30;;;0.80;92.40;;;;;;5033134;28;20245;-82
2021/01/27 00:15:55;;;;;;;3.97;2.28;;;0.80;92.70;;;;;;5025770;28;20069;-82
2021/01/27 00:18:22;;;;;;;5.88;2.40;;;0.80;92.60;;;;;;5023597;28;20053;-82
2021/01/27 00:20:53;;;;;;;5.75;1.95;;;0.80;92.50;;;;;;5006087;28;20046;-83
2021/01/27 00:23:20;;;;;;;3.25;1.65;;;0.80;92.60;;;;;;5035284;28;20060;-85
2021/01/27 00:25:48;;;;;;;3.10;1.52;;;0.80;92.70;;;;;;5019604;28;20050;-82
2021/01/27 00:28:15;;;;;;;4.82;1.90;;;0.70;92.80;;;;;;5038385;28;20092;-82
2021/01/27 00:30:44;;;;;;;4.43;2.28;;;0.80;92.90;;;;;;5025050;28;21020;-84
2021/01/27 00:33:14;;;;;;;4.05;2.13;;;0.80;93.00;;;;;;5018885;28;20056;-84
2021/01/27 00:35:43;;;;;;;3.33;1.63;;;0.70;93.10;;;;;;5019618;28;20061;-84
2021/01/27 00:38:12;;;;;;;5.18;2.42;;;0.70;93.10;;;;;;5020357;28;20049;-82
2021/01/27 00:40:39;;;;;;;3.88;1.70;;;0.80;93.10;;;;;;5033640;28;20053;-81
2021/01/27 00:43:06;;;;;;;7.30;2.28;;;0.80;93.00;;;;;;5036708;28;20058;-84
2021/01/27 00:45:33;;;;;;;3.90;1.85;;;0.90;93.00;;;;;;5041029;28;20053;-86
2021/01/27 00:48:02;;;;;;;6.03;2.55;;;0.90;92.80;;;;;;5034757;28;20086;-84
2021/01/27 00:50:33;;;;;;;7.35;1.90;;;1.00;92.60;;;;;;5035883;28;20045;-84
2021/01/27 00:53:05;;;;;;;6.80;2.25;;;1.10;92.40;;;;;;5036812;28;20062;-83
2021/01/27 00:55:38;;;;;;;2.80;1.35;;;1.10;92.10;;;;;;5038396;28;20084;-81
2021/01/27 00:58:09;;;;;;;4.28;2.03;;;1.20;92.00;;;;;;5029766;28;20233;-83
2021/01/27 01:00:42;;;;;;;3.92;2.00;;;1.30;91.90;;;;;;5051592;28;20057;-81
2021/01/27 01:03:17;;;;;;;4.15;2.17;;;1.30;91.70;;;;;;5035115;28;20053;-83
2021/01/27 01:05:45;;;;;;;4.75;2.05;;;1.40;91.60;;;;;;5036386;28;20060;-83
2021/01/27 01:08:16;;;;;;;4.07;2.15;;;1.40;91.50;;;;;;5036541;28;20310;-80
2021/01/27 01:10:43;;;;;;;;;;;1.40;91.40;;;;;;5040689;28;20045;-83
2021/01/27 01:13:13;;;;;;;3.28;2.00;;;1.50;91.20;;;;;;5054560;28;19917;-83
2021/01/27 01:15:40;;;;;;;4.90;1.90;;;1.50;91.40;;;;;;5036042;28;20053;-83
2021/01/27 01:18:07;;;;;;;6.82;2.63;;;1.50;91.30;;;;;;5038277;28;20057;-84
2021/01/27 01:20:35;;;;;;;8.55;2.75;;;1.50;90.80;;;;;;5036197;28;20057;-84
2021/01/27 01:23:05;;;;;;;4.28;1.80;;;1.60;90.80;;;;;;5037017;28;20057;-81
2021/01/27 01:25:34;;;;;;;5.40;2.75;;;1.60;90.70;;;;;;5040336;28;23673;-83
2021/01/27 01:28:02;;;;;;;4.05;2.28;;;1.60;90.50;;;;;;5035300;28;20068;-82
2021/01/27 01:30:32;;;;;;;4.07;2.17;;;1.70;89.90;;;;;;5021724;28;20060;-81
2021/01/27 01:33:01;;;;;;;4.72;2.22;;;1.70;89.90;;;;;;5035632;28;20116;-84
2021/01/27 01:35:29;;;;;;;3.80;2.47;;;1.70;89.90;;;;;;5038951;28;20075;-83
2021/01/27 01:37:56;;;;;;;7.57;3.00;;;1.70;90.10;;;;;;5028060;28;20767;-83
2021/01/27 01:40:26;;;;;;;6.05;2.78;;;1.60;90.20;;;;;;5036561;28;20131;-82
2021/01/27 01:43:02;;;;;;;6.18;2.88;;;1.60;90.20;;;;;;5046167;28;20075;-82
2021/01/27 01:45:32;;;;;;;5.30;2.90;;;1.60;90.50;;;;;;5053544;28;20061;-84
2021/01/27 01:48:03;;;;;;;6.93;2.57;;;1.50;90.30;;;;;;5036502;28;20099;-84
2021/01/27 01:50:30;;;;;;;8.15;2.65;;;1.60;90.50;;;;;;5052549;28;20330;-82
2021/01/27 01:52:59;;;;;;;6.03;2.95;;;1.50;90.70;;;;;;5033975;28;20052;-82
2021/01/27 01:55:27;;;;;;;10.10;3.17;;;1.50;90.90;;;;;;5055651;28;20348;-80
2021/01/27 01:57:55;;;;;;;4.95;2.85;;;1.60;90.80;;;;;;5052544;28;20247;-83
2021/01/27 02:00:32;;;;;;;5.75;3.83;;;1.60;90.70;;;;;;5053250;28;20045;-84
2021/01/27 02:03:00;;;;;;;8.30;3.55;;;1.60;90.20;;;;;;5055802;28;20354;-83
2021/01/27 02:05:34;;;;;;;8.48;3.33;;;1.70;89.90;;;;;;5041076;28;20045;-84
2021/01/27 02:08:04;;;;;;;8.23;3.75;;;1.70;89.90;;;;;;5055337;28;20053;-85
2021/01/27 02:10:31;;;;;;;6.97;3.67;;;1.70;89.40;;;;;;5052945;28;20490;-83
2021/01/27 02:13:17;;;;;;;6.95;3.08;;;1.70;89.30;;;;;;5035765;28;20053;-83
2021/01/27 02:16:09;;;;;;;8.63;3.95;;;1.60;89.50;;;;;;5054211;28;20053;-84
2021/01/27 02:18:51;;;;;;;7.40;3.50;;;1.60;89.40;;;;;;5040174;28;20284;-81
2021/01/27 02:21:56;;;;;;;7.90;3.72;;;1.50;89.90;;;;;;5034152;28;20269;-83
2021/01/27 02:24:53;;;;;;;6.72;4.07;;;1.50;89.40;;;;;;5016328;28;20053;-81
2021/01/27 02:27:25;;;;;;;8.05;3.72;;;1.40;90.00;;;;;;5036321;28;20224;-86
2021/01/27 02:30:17;;;;;;;5.43;2.60;;;1.40;90.10;;;;;;5055288;28;20052;-82
2021/01/27 02:33:02;;;;;;;8.50;3.55;;;1.30;90.20;;;;;;5036221;28;20371;-85
2021/01/27 02:35:36;;;;;;;5.50;3.40;;;1.20;90.40;;;;;;5050817;28;20052;-84
2021/01/27 02:38:10;;;;;;;9.15;4.07;;;1.20;90.60;;;;;;5054331;28;20053;-86
2021/01/27 02:40:43;;;;;;;6.80;3.75;;;1.20;90.70;;;;;;5019637;28;20041;-85
2021/01/27 02:43:13;;;;;;;7.95;4.18;;;1.10;91.10;;;;;;5052695;28;20056;-83
2021/01/27 02:45:45;;;;;;;7.55;4.07;;;1.00;91.30;;;;;;5038654;28;20057;-85
2021/01/27 02:48:17;;;;;;;6.15;3.58;;;1.00;91.40;;;;;;5051720;28;20048;-82
2021/01/27 02:50:51;;;;;;;6.15;3.63;;;0.90;91.60;;;;;;5037838;28;20075;-82
2021/01/27 02:53:21;;;;;;;5.43;3.45;;;0.80;91.40;;;;;;5035684;28;20423;-82
2021/01/27 02:55:53;;;;;;;10.82;4.15;;;0.80;91.30;;;;;;5056092;28;20056;-84
2021/01/27 02:58:25;;;;;;;6.00;3.75;;;0.80;91.70;;;;;;5054658;28;20053;-80
2021/01/27 03:00:58;;;;;;;7.60;3.38;;;0.70;91.80;;;;;;5053097;28;20075;-81
2021/01/27 03:03:30;;;;;;;6.25;3.92;;;0.70;91.90;;;;;;5054784;28;20394;-84
2021/01/27 03:06:02;;;;;;;6.70;3.60;;;0.60;91.90;;;;;;5035942;28;20260;-84
2021/01/27 03:08:37;;;;;;;8.68;4.30;;;0.60;91.90;;;;;;5037938;28;20061;-82
2021/01/27 03:11:09;;;;;;;7.40;3.97;;;0.50;91.90;;;;;;5058539;28;20052;-82
2021/01/27 03:13:40;;;;;;;6.95;3.70;;;0.50;92.20;;;;;;5053368;28;20053;-84
2021/01/27 03:16:14;;;;;;;9.15;4.45;;;0.40;92.30;;;;;;5058742;28;20056;-81
2021/01/27 03:18:45;;;;;;;9.52;4.82;;;0.40;92.20;;;;;;5044996;28;20053;-85
2021/01/27 03:21:21;;;;;;;7.32;3.35;;;0.40;92.20;;;;;;5045369;28;20060;-81
2021/01/27 03:23:50;;;;;;;7.68;4.10;;;0.30;92.30;;;;;;5064192;28;20059;-81
2021/01/27 03:26:26;;;;;;;6.53;3.85;;;0.30;92.30;;;;;;5035336;28;20065;-83
2021/01/27 03:28:57;;;;;;;8.88;4.93;;;0.30;92.40;;;;;;5060715;28;20056;-85
2021/01/27 03:31:25;;;;;;;7.32;3.13;;;0.30;92.40;;;;;;5040742;28;20041;-83
2021/01/27 03:34:02;;;;;;;6.72;4.40;;;0.30;92.40;;;;;;5040434;28;20049;-81
2021/01/27 03:36:37;;;;;;;6.72;4.15;;;0.30;92.10;;;;;;5064668;28;20064;-81
2021/01/27 03:39:05;;;;;;;10.68;4.47;;;0.30;91.90;;;;;;5064483;28;20056;-83
2021/01/27 03:41:35;;;;;;;9.80;4.25;;;0.20;91.90;;;;;;5065130;28;20041;-81
2021/01/27 03:44:12;;;;;;;8.50;4.57;;;0.30;92.10;;;;;;5063908;28;20060;-82
2021/01/27 03:46:43;;;;;;;9.00;3.92;;;0.20;92.30;;;;;;5061738;28;20151;-83
2021/01/27 03:49:16;;;;;;;9.30;5.28;;;0.10;92.70;;;;;;5062938;28;20073;-84
2021/01/27 03:51:47;;;;;;;8.80;4.03;;;0.10;92.50;;;;;;5063787;28;20059;-85
2021/01/27 03:54:17;;;;;;;8.27;4.20;;;0.10;92.90;;;;;;5047656;28;20118;-85
2021/01/27 03:56:50;;;;;;;7.50;3.80;;;0.10;93.20;;;;;;5047161;28;20415;-82
2021/01/27 03:59:17;;;;;;;9.38;4.13;;;0.00;93.50;;;;;;5045409;28;20056;-83
2021/01/27 04:01:50;;;;;;;9.48;3.78;;;0.00;93.40;;;;;;5045783;28;20041;-83
2021/01/27 04:04:17;;;;;;;9.18;4.35;;;0.00;93.60;;;;;;5043149;28;20057;-83
2021/01/27 04:06:45;;;;;;;7.50;4.30;;;0.00;93.60;;;;;;5061275;28;20052;-82
2021/01/27 04:09:13;;;;;;;8.52;3.83;;;0.00;93.60;;;;;;5042193;28;20049;-81
2021/01/27 04:11:40;;;;;;;9.10;4.35;;;0.00;92.80;;;;;;5028021;28;20259;-83
2021/01/27 04:14:08;;;;;;;6.22;4.03;;;0.10;92.40;;;;;;5043784;28;20095;-81
2021/01/27 04:16:35;;;;;;;10.00;4.20;;;0.10;92.20;;;;;;5059674;28;20056;-82
2021/01/27 04:19:08;;;;;;;6.18;3.20;;;0.10;92.40;;;;;;5042005;28;20275;-83
2021/01/27 04:21:42;;;;;;;6.72;2.83;;;0.10;92.40;;;;;;5042113;28;20052;-82
2021/01/27 04:24:11;;;;;;;16.05;3.53;;;0.00;92.60;;;;;;5060196;28;20049;-82
2021/01/27 04:26:38;;;;;;;7.10;3.20;;;0.10;92.70;;;;;;5038307;28;20049;-80
2021/01/27 04:29:05;;;;;;;8.40;4.07;;;0.00;92.80;;;;;;5039617;28;20057;-82
2021/01/27 04:31:32;;;;;;;5.07;3.15;;;0.00;93.10;;;;;;5055035;28;20037;-83
2021/01/27 04:33:59;;;;;;;8.80;3.80;;;0.00;93.10;;;;;;5053612;28;20406;-83
2021/01/27 04:36:26;;;;;;;9.40;3.30;;;0.00;93.10;;;;;;5054336;28;20048;-85
2021/01/27 04:38:53;;;;;;;10.80;3.75;;;-3276.70;93.40;;;;;;5036048;28;20374;-82
2021/01/27 04:41:22;;;;;;;7.55;3.85;;;-3276.70;93.60;;;;;;5055804;28;20120;-82
2021/01/27 04:43:49;;;;;;;6.82;3.30;;;-3276.70;93.70;;;;;;5056990;28;20064;-80
2021/01/27 04:46:19;;;;;;;7.85;3.85;;;-3276.60;93.70;;;;;;5035768;28;20343;-83
2021/01/27 04:48:56;;;;;;;5.88;3.00;;;-3276.60;94.00;;;;;;5018326;28;20045;-84
2021/01/27 04:51:27;;;;;;;12.25;3.47;;;-3276.60;93.90;;;;;;5033554;28;20045;-84
2021/01/27 04:54:12;;;;;;;8.18;4.03;;;-3276.60;94.30;;;;;;5021125;28;20048;-83
2021/01/27 04:57:00;;;;;;;8.65;3.70;;;-3276.60;94.40;;;;;;5055550;28;20052;-83
2021/01/27 04:59:44;;;;;;;10.15;3.08;;;-3276.60;94.60;;;;;;5056836;28;20074;-85
2021/01/27 05:02:22;;;;;;;5.95;2.70;;;-3276.60;94.60;;;;;;5058532;28;20317;-82
2021/01/27 05:05:00;;;;;;;7.00;3.03;;;-3276.60;94.60;;;;;;5038991;28;20116;-85
2021/01/27 05:08:01;;;;;;;9.55;4.13;;;-3276.60;94.70;;;;;;5059130;28;20232;-83
2021/01/27 05:10:35;;;;;;;6.82;3.47;;;-3276.70;94.50;;;;;;5036507;28;20036;-84
2021/01/27 05:13:12;;;;;;;7.90;3.58;;;0.00;94.20;;;;;;5052969;28;20052;-81
2021/01/27 05:15:39;;;;;;;5.57;3.35;;;0.00;94.00;;;;;;5033476;28;20049;-82
2021/01/27 05:18:06;;;;;;;6.88;3.53;;;0.00;93.90;;;;;;5034017;28;20049;-83
2021/01/27 05:20:32;;;;;;;8.43;4.13;;;0.20;93.90;;;;;;5032133;28;20041;-84
2021/01/27 05:22:59;;;;;;;5.80;3.13;;;0.20;93.70;;;;;;5054938;28;20283;-81
2021/01/27 05:25:37;;;;;;;8.13;3.38;;;0.20;93.60;;;;;;5053770;28;20075;-85
2021/01/27 05:28:10;;;;;;;7.22;4.15;;;0.20;93.70;;;;;;5051893;28;20049;-84
2021/01/27 05:30:42;;;;;;;8.10;3.88;;;0.20;93.50;;;;;;5054379;28;20040;-85
2021/01/27 05:33:10;;;;;;;11.95;4.18;;;0.20;93.40;;;;;;5033436;28;20053;-84
2021/01/27 05:35:39;;;;;;;7.25;3.85;;;0.20;93.40;;;;;;5050821;28;21175;-82
2021/01/27 05:38:25;;;;;;;7.75;4.53;;;0.20;93.40;;;;;;5050909;28;20064;-83
2021/01/27 05:41:02;;;;;;;6.57;3.35;;;0.30;93.60;;;;;;5012800;28;20045;-86
2021/01/27 05:43:31;;;;;;;9.73;4.28;;;0.30;93.10;;;;;;5016118;28;22990;-81
2021/01/27 05:46:10;;;;;;;7.82;4.13;;;0.30;93.40;;;;;;5016785;28;20095;-85
2021/01/27 05:48:55;;;;;;;9.70;3.67;;;0.30;93.40;;;;;;5051572;28;20057;-84
2021/01/27 05:51:31;;;;;;;8.00;2.97;;;0.30;93.50;;;;;;5034292;28;20056;-81
2021/01/27 05:53:59;;;;;;;9.77;3.67;;;0.30;93.50;;;;;;5049945;28;20056;-83
2021/01/27 05:56:27;;;;;;;10.55;2.83;;;0.40;93.50;;;;;;5050143;28;20072;-84
2021/01/27 05:59:03;;;;;;;8.13;2.63;;;0.40;93.50;;;;;;5054280;28;20067;-83
2021/01/27 06:01:36;;;;;;;5.43;3.22;;;0.40;93.40;;;;;;5029630;28;20059;-85
2021/01/27 06:04:21;;;;;;;5.93;2.63;;;0.40;93.40;;;;;;5045082;28;20257;-85
2021/01/27 06:07:04;;;;;;;5.00;2.90;;;0.50;93.20;;;;;;5052636;28;20275;-80
2021/01/27 06:09:34;;;;;;;4.72;2.50;;;0.50;93.20;;;;;;5026130;28;20060;-84
2021/01/27 06:12:03;;;;;;;6.75;3.15;;;0.50;93.10;;;;;;5050030;28;20339;-82
2021/01/27 06:14:31;;;;;;;10.45;2.90;;;0.50;93.00;;;;;;5027565;28;20055;-83
2021/01/27 06:17:14;;;;;;;8.13;3.15;;;0.50;93.00;;;;;;5028083;28;20087;-84
2021/01/27 06:19:41;;;;;;;5.47;2.50;;;0.60;93.00;;;;;;5020935;28;20088;-81
2021/01/27 06:22:31;;;;;;;7.90;3.50;;;0.50;92.90;;;;;;5046327;28;20056;-86
2021/01/27 06:25:18;;;;;;;5.05;2.60;;;0.50;92.90;;;;;;5038749;28;20490;-82
2021/01/27 06:28:10;;;;;;;4.85;3.03;;;0.60;93.00;;;;;;5042492;28;21245;-82
2021/01/27 06:31:00;;;;;;;7.32;3.28;;;0.70;92.80;;;;;;5025295;28;20053;-82
2021/01/27 06:34:13;;;;;;;6.28;2.75;;;0.70;92.60;;;;;;5026438;28;20072;-82
2021/01/27 06:37:03;;;;;;;5.85;2.75;;;0.70;92.40;;;;;;5047000;28;20066;-81
2021/01/27 06:40:00;;;;;;;5.70;2.65;;;0.80;92.10;;;;;;5030840;28;20044;-85
2021/01/27 06:43:04;;;;;;;4.88;2.58;;;0.80;91.90;;;;;;5025675;28;20060;-85
2021/01/27 06:45:39;;;;;;;8.27;2.70;;;1.00;91.90;;;;;;5028133;28;20068;-84
2021/01/27 06:48:43;;;;;;;7.53;3.28;;;1.00;91.20;;;;;;5034105;28;20095;-83
2021/01/27 06:51:48;;;;;;;6.85;3.25;;;1.00;91.20;;;;;;5052727;28;20526;-83
2021/01/27 06:54:39;;;;;;;6.88;4.65;;;1.00;91.30;;;;;;5031089;28;20064;-83
2021/01/27 06:57:15;;;;;;;8.85;3.45;;;1.00;91.60;;;;;;5046710;28;20059;-81
2021/01/27 07:00:05;;;;;;;8.57;3.67;;;1.20;91.60;;;;;;5029369;28;20233;-82
2021/01/27 07:03:05;;;;;;;6.73;4.10;;;1.10;90.90;;;;;;5032373;28;20048;-83
2021/01/27 07:06:14;;;;;;;9.20;4.75;;;1.10;91.00;;;;;;5026661;28;20630;-83
2021/01/27 07:08:58;;;;;;;8.63;3.40;;;1.10;90.80;;;;;;5026096;28;20268;-82
2021/01/27 07:11:35;;;;;;;7.07;3.83;;;1.10;91.20;;;;;;5048723;28;20057;-82
2021/01/27 07:14:24;;;;;;;11.25;4.03;;;1.20;91.30;;;;;;5023265;28;20229;-83
2021/01/27 07:17:22;;;;;;;9.50;4.25;;;1.20;91.30;;;;;;5022164;28;20260;-83
2021/01/27 07:20:18;;;;;;;8.82;4.88;;;1.20;90.90;;;;;;5045529;28;20307;-84
2021/01/27 07:22:54;;;;;;;9.45;5.07;;;1.20;90.70;;;;;;5052097;28;20045;-82
2021/01/27 07:25:45;;;;;;;12.80;4.45;;;1.20;90.40;;;;;;5048665;28;20091;-82
2021/01/27 07:28:17;;;;;;;9.07;4.57;;;1.30;90.10;;;;;;5042905;28;20064;-84
2021/01/27 07:30:56;;;;;;;8.43;4.03;;;1.30;90.60;;;;;;5048604;28;20409;-85
2021/01/27 07:33:33;;;;;;;10.90;4.70;;;1.40;90.20;;;;;;5051982;28;20359;-83
2021/01/27 07:36:08;;;;;;;8.60;3.22;;;1.30;89.60;;;;;;5046171;28;20048;-81
2021/01/27 07:38:38;;;;;;;8.40;3.90;;;1.40;89.70;;;;;;5032290;28;20062;-82
2021/01/27 07:41:08;;;;;;;10.10;4.28;;;1.30;89.90;;;;;;5031979;28;20362;-80
2021/01/27 07:43:43;;;;;;;11.55;4.35;;;1.40;88.80;;;;;;5032632;28;20052;-84
2021/01/27 07:46:14;;;;;;;9.02;4.05;;;1.40;89.30;;;;;;5047180;28;20318;-82
2021/01/27 07:48:46;;;;;;;7.68;4.30;;;1.50;89.10;;;;;;5050106;28;20052;-83
2021/01/27 07:51:19;;;;;;;9.23;4.57;;;1.50;89.60;;;;;;5025991;28;20124;-83
2021/01/27 07:53:57;;;;;;;12.57;4.75;;;1.60;89.60;;;;;;5031826;28;20052;-81
2021/01/27 07:56:29;;;;;;;10.48;6.10;;;1.50;88.50;;;;;;5030112;28;20052;-81
2021/01/27 07:59:07;;;;;;;12.48;4.72;;;1.60;88.70;;;;;;5049926;28;20381;-82
2021/01/27 08:01:40;;;;;;;7.70;3.75;;;1.70;88.40;;;;;;5024074;28;21437;-83
2021/01/27 08:04:14;;;;;;;8.73;4.90;;;1.80;87.90;;;;;;5047181;28;20061;-83
2021/01/27 08:06:45;;;;;;;7.38;3.88;;;1.80;87.50;;;;;;5049289;28;20056;-82
2021/01/27 08:09:13;;;;;;;7.75;3.85;;;1.70;87.30;;;;;;5015832;28;20051;-84
2021/01/27 08:11:43;;;;;;;8.85;3.50;;;1.70;87.50;;;;;;5033421;28;20053;-82
2021/01/27 08:14:13;;;;;;;6.68;3.60;;;1.70;88.30;;;;;;5038839;28;20065;-83
2021/01/27 08:16:44;;;;;;;8.63;3.77;;;1.70;88.30;;;;;;5048903;28;20352;-80
2021/01/27 08:19:19;;;;;;;;;;;1.80;88.70;;;;;;5052000;28;20052;-81
2021/01/27 08:21:56;;;;;;;9.88;4.20;;;2.00;88.60;;;;;;5045280;28;20249;-83
2021/01/27 08:24:52;;;;;;;12.35;4.32;;;1.90;88.40;;;;;;5020765;28;20048;-82
2021/01/27 08:27:32;;;;;;;9.20;4.13;;;2.00;88.50;;;;;;5051961;28;20056;-83
2021/01/27 08:30:23;;;;;;;6.75;3.50;;;2.00;87.90;;;;;;5010081;28;20073;-82
2021/01/27 08:33:25;;;;;;;6.25;3.38;;;2.10;87.50;;;;;;5048570;28;20538;-84
2021/01/27 08:36:05;;;;;;;6.43;2.55;;;2.10;87.40;;;;;;5047838;28;20151;-83
2021/01/27 08:38:34;;;;;;;5.47;2.83;;;2.20;87.20;;;;;;5036185;28;20053;-84
2021/01/27 08:41:04;;;;;;;7.10;3.65;;;2.30;87.10;;;;;;5036778;28;20045;-81
2021/01/27 08:43:40;;;;;;;8.50;4.22;;;2.20;86.30;;;;;;5029432;28;20062;-81
2021/01/27 08:46:31;;;;;;;13.73;4.18;;;2.20;86.80;;;;;;5047226;28;20381;-83
2021/01/27 08:48:58;;;;;;;16.45;5.18;;;2.40;86.90;;;;;;5028344;28;20076;-81
2021/01/27 08:51:44;;;;;;;11.15;4.85;;;2.50;86.40;;;;;;5027358;28;20147;-80
2021/01/27 08:54:28;;;;;;;8.73;4.28;;;2.50;85.90;;;;;;5031571;28;20050;-81
2021/01/27 08:57:14;;;;;;;12.75;4.60;;;2.50;86.80;;;;;;5016231;28;20112;-83
2021/01/27 09:00:00;;;;;;;16.85;5.38;;;2.60;86.30;;;;;;5035876;28;20053;-81
2021/01/27 09:02:40;;;;;;;9.55;3.45;;;2.70;85.60;;;;;;5044157;28;20057;-82
2021/01/27 09:05:19;;;;;;;5.22;2.78;;;2.60;85.30;;;;;;5035275;28;20062;-82
2021/01/27 09:07:48;;;;;;;7.35;2.55;;;2.60;85.10;;;;;;5032973;28;20049;-82
2021/01/27 09:10:21;;;;;;;5.90;2.53;;;2.40;84.70;;;;;;5049539;28;20107;-82
2021/01/27 09:12:49;;;;;;;9.27;1.80;;;2.50;84.70;;;;;;5029393;28;20045;-85
2021/01/27 09:15:27;;;;;;;3.33;1.38;;;2.40;84.20;;;;;;5028594;28;20082;-83
2021/01/27 09:17:55;;;;;;;3.50;1.80;;;2.40;83.70;;;;;;5027102;28;20352;-85
2021/01/27 09:20:25;;;;;;;3.28;1.38;;;2.40;84.20;;;;;;5028288;28;20053;-83
2021/01/27 09:22:59;;;;;;;6.40;2.13;;;2.40;83.80;;;;;;5044488;28;20768;-84
2021/01/27 09:25:26;;;;;;;1.88;1.27;;;2.40;83.80;;;;;;5045099;28;20096;-82
2021/01/27 09:28:01;;;;;;;3.47;1.48;;;2.40;84.00;;;;;;5030573;28;20060;-82
2021/01/27 09:30:29;;;;;;;2.65;1.30;;;2.40;83.80;;;;;;5028270;28;20077;-81
2021/01/27 09:33:10;;;;;;;2.20;1.08;;;2.40;84.50;;;;;;5029021;28;20545;-82
2021/01/27 09:35:37;;;;;;;3.15;1.10;;;2.40;84.30;;;;;;5030897;28;20065;-84
2021/01/27 09:38:09;;;;;;;8.02;1.30;;;2.40;84.50;;;;;;5028170;28;20281;-82
2021/01/27 09:40:39;;;;;;;4.40;1.45;;;2.60;84.50;;;;;;5030851;28;20049;-82
2021/01/27 09:43:09;;;;;;;9.63;1.58;;;2.60;84.00;;;;;;5023596;28;20073;-81
2021/01/27 09:45:40;;;;;;;13.80;4.03;;;2.60;83.90;;;;;;5000815;28;20506;-81
2021/01/27 09:48:10;;;;;;;23.27;8.70;;;2.60;84.20;;;;;;5016647;28;20050;-84
2021/01/27 09:50:39;;;;;;;10.95;3.42;;;2.60;84.60;;;;;;5016085;28;20045;-85
2021/01/27 09:53:07;;;;;;;3.63;1.48;;;2.60;84.50;;;;;;5014439;28;20057;-82
2021/01/27 09:55:34;;;;;;;2.97;1.23;;;2.60;84.30;;;;;;4992199;28;20058;-83
2021/01/27 09:58:05;;;;;;;4.60;1.52;;;2.70;84.40;;;;;;5012712;28;20060;-81
2021/01/27 10:00:35;;;;;;;3.25;1.08;;;2.70;83.40;;;;;;5014879;28;20077;-83
2021/01/27 10:03:24;;;;;;;3.10;1.10;;;2.80;83.20;;;;;;5015933;28;20151;-82
2021/01/27 10:06:00;;;;;;;3.80;1.00;;;2.70;83.70;;;;;;5003844;28;20077;-83
2021/01/27 10:08:34;;;;;;;2.10;0.80;;;2.80;83.20;;;;;;5025821;28;20057;-83
2021/01/27 10:11:05;;;;;;;2.30;1.02;;;2.80;82.60;;;;;;5016809;28;20049;-82
2021/01/27 10:13:33;;;;;;;2.17;0.80;;;2.80;82.50;;;;;;5006352;28;20073;-81
2021/01/27 10:16:06;;;;;;;3.13;0.77;;;3.00;82.60;;;;;;5011344;28;20058;-81
2021/01/27 10:18:35;;;;;;;0.90;0.50;;;3.00;83.00;;;;;;5013944;28;20056;-83
2021/01/27 10:21:04;;;;;;;2.38;1.15;;;2.80;82.70;;;;;;5015505;28;20049;-81
2021/01/27 10:23:37;;;;;;;2.90;0.70;;;2.90;82.60;;;;;;5026108;28;20065;-81
2021/01/27 10:26:35;;;;;;;2.17;0.52;;;2.80;82.80;;;;;;4986641;28;20057;-80
2021/01/27 10:29:27;;;;;;;1.27;0.57;;;2.90;83.10;;;;;;5000478;28;20648;-81
2021/01/27 10:31:56;;;;;;;2.03;0.95;;;2.90;82.90;;;;;;5012583;28;20133;-84
2021/01/27 10:34:41;;;;;;;3.45;0.95;;;2.80;83.90;;;;;;5017408;28;20391;-81
2021/01/27 10:37:27;;;;;;;1.15;0.73;;;2.80;84.00;;;;;;5010206;28;20119;-83
2021/01/27 10:40:19;;;;;;;1.45;0.65;;;2.80;84.60;;;;;;5016756;28;20041;-83
2021/01/27 10:42:47;;;;;;;1.48;0.75;;;2.80;85.10;;;;;;5008891;28;20251;-81
2021/01/27 10:45:33;;;;;;;3.20;1.15;;;2.60;86.60;;;;;;5029546;28;20061;-81
2021/01/27 10:48:13;;;;;;;2.78;0.75;;;2.60;86.90;;;;;;5031737;28;20053;-82
2021/01/27 10:50:52;;;;;;;0.98;0.60;;;2.50;87.80;;;;;;3855456;28;10020719;-81
2021/01/27 10:53:20;;;;;;;1.70;0.47;;;2.40;88.30;;;;;;2080167;28;10002016;-82
2021/01/27 10:55:53;;;;;;;1.90;0.60;;;2.30;88.40;;;;;;5043999;28;20252;-82
2021/01/27 10:58:23;;;;;;;2.58;0.65;;;2.20;88.60;;;;;;5036276;28;20057;-80
2021/01/27 11:00:50;;;;;;;2.65;0.70;;;2.30;88.40;;;;;;5034159;28;20056;-84
2021/01/27 11:03:19;;;;;;;2.10;0.70;;;2.30;88.40;;;;;;5034540;28;20041;-85
2021/01/27 11:05:46;;;;;;;1.45;0.73;;;2.40;88.20;;;;;;5034670;28;20260;-83
2021/01/27 11:08:21;;;;;;;1.38;0.70;;;2.50;88.60;;;;;;5036677;28;20069;-85
2021/01/27 11:10:51;;;;;;;1.27;0.70;;;2.50;88.20;;;;;;5035332;28;20053;-82
2021/01/27 11:13:17;;;;;;;1.33;0.55;;;2.40;88.00;;;;;;5033911;28;20050;-83
2021/01/27 11:15:44;;;;;;;1.92;0.57;;;2.40;88.40;;;;;;5031493;28;20270;-84
2021/01/27 11:18:11;;;;;;;1.55;0.50;;;2.40;88.40;;;;;;5027143;28;20056;-84
2021/01/27 11:20:38;;;;;;;1.80;0.60;;;2.30;88.50;;;;;;5039266;28;20061;-82
2021/01/27 11:23:05;;;;;;;1.92;0.73;;;2.50;88.80;;;;;;5043345;28;20436;-82
2021/01/27 11:25:33;;;;;;;1.50;0.40;;;2.40;89.10;;;;;;5054761;28;20221;-81
2021/01/27 11:28:06;;;;;;;1.30;0.57;;;2.60;87.70;;;;;;5035073;28;20053;-80
2021/01/27 11:30:33;;;;;;;1.93;0.90;;;2.60;87.90;;;;;;5032849;28;20079;-81
2021/01/27 11:33:00;;;;;;;2.05;0.80;;;2.60;88.40;;;;;;5032201;28;20712;-82
2021/01/27 11:35:28;;;;;;;2.13;0.80;;;2.40;87.70;;;;;;5035926;28;20121;-85
2021/01/27 11:37:55;;;;;;;1.08;0.57;;;2.40;87.90;;;;;;5036355;28;20056;-83
2021/01/27 11:40:26;;;;;;;1.63;1.00;;;2.40;87.90;;;;;;5033009;28;20056;-83
2021/01/27 11:42:54;;;;;;;1.27;0.63;;;2.40;88.00;;;;;;5044409;28;20055;-82
2021/01/27 11:45:22;;;;;;;2.58;0.60;;;2.50;87.90;;;;;;5031571;28;20050;-81
2021/01/27 11:47:49;;;;;;;2.08;1.20;;;2.50;87.30;;;;;;5035981;28;20116;-81
2021/01/27 11:50:17;;;;;;;2.05;0.93;;;2.70;87.60;;;;;;5034684;28;20061;-82
2021/01/27 11:52:47;;;;;;;2.47;0.68;;;2.70;86.50;;;;;;5017200;28;20226;-82
2021/01/27 11:55:14;;;;;;;2.08;1.15;;;2.80;86.30;;;;;;5038650;28;20403;-83
2021/01/27 11:57:41;;;;;;;3.00;0.98;;;3.00;86.40;;;;;;5033669;28;20352;-84
2021/01/27 12:00:17;;;;;;;1.33;0.68;;;3.00;86.10;;;;;;5026559;28;20044;-83
2021/01/27 12:02:49;;;;;;;0.70;0.30;;;3.10;86.10;;;;;;5038598;28;20056;-83
2021/01/27 12:05:19;;;;;;;3.90;1.10;;;3.00;85.90;;;;;;5034755;28;20172;-81
2021/01/27 12:07:49;;;;;;;2.30;1.08;;;3.00;86.40;;;;;;5031181;28;20096;-83
2021/01/27 12:10:23;;;;;;;1.45;0.60;;;2.90;86.40;;;;;;5011646;28;20142;-82
2021/01/27 12:12:50;;;;;;;1.73;0.93;;;2.80;86.60;;;;;;5020586;28;20049;-83
2021/01/27 12:15:18;;;;;;;1.38;0.60;;;2.80;86.30;;;;;;5029814;28;20062;-82
2021/01/27 12:17:45;;;;;;;5.70;1.27;;;2.80;86.00;;;;;;5034006;28;20056;-81
2021/01/27 12:20:15;;;;;;;10.90;1.30;;;2.90;85.80;;;;;;5024763;28;20104;-83
2021/01/27 12:22:42;;;;;;;3.38;1.25;;;2.80;85.40;;;;;;5005943;28;20121;-83
2021/01/27 12:25:09;;;;;;;2.75;1.00;;;2.80;85.40;;;;;;5038982;28;20104;-80
2021/01/27 12:27:44;;;;;;;1.70;1.05;;;3.10;85.30;;;;;;5023056;28;20069;-84
2021/01/27 12:30:15;;;;;;;1.45;0.57;;;3.00;84.30;;;;;;5007863;28;20053;-85
2021/01/27 12:32:48;;;;;;;2.10;0.82;;;3.00;84.30;;;;;;5004286;28;20057;-85
2021/01/27 12:35:15;;;;;;;4.43;0.90;;;3.00;84.30;;;;;;4999971;28;20081;-84
2021/01/27 12:37:44;;;;;;;1.45;0.82;;;2.90;84.20;;;;;;5009474;28;20049;-79
2021/01/27 12:40:14;;;;;;;2.53;0.77;;;3.00;84.50;;;;;;5004668;28;20053;-80
2021/01/27 12:42:48;;;;;;;1.05;0.40;;;3.00;84.20;;;;;;5007809;28;20073;-83
2021/01/27 12:45:18;;;;;;;2.28;0.60;;;3.00;83.90;;;;;;5037640;28;20060;-83
2021/01/27 12:47:46;;;;;;;0.90;0.50;;;3.00;84.10;;;;;;5015219;28;20172;-81
2021/01/27 12:50:14;;;;;;;1.13;0.70;;;2.90;84.20;;;;;;5017829;28;20058;-79
2021/01/27 12:53:01;;;;;;;1.48;0.63;;;2.90;84.80;;;;;;5035744;28;20064;-80
2021/01/27 12:55:43;;;;;;;2.20;0.70;;;3.00;84.50;;;;;;5007040;28;20045;-83
2021/01/27 12:58:16;;;;;;;2.17;0.55;;;2.90;84.80;;;;;;5017434;28;20053;-82
2021/01/27 13:00:49;;;;;;;2.20;0.47;;;2.90;84.90;;;;;;5038381;28;20053;-80
2021/01/27 13:03:17;;;;;;;0.95;0.60;;;2.90;84.70;;;;;;5036449;28;20065;-81
2021/01/27 13:05:45;;;;;;;0.88;0.43;;;2.90;85.10;;;;;;5026447;28;20095;-80
2021/01/27 13:08:11;;;;;;;1.70;0.73;;;2.80;85.50;;;;;;5023104;28;20077;-80
2021/01/27 13:10:41;;;;;;;2.10;0.88;;;2.90;85.40;;;;;;5034772;28;20402;-82
2021/01/27 13:13:09;;;;;;;1.58;0.80;;;2.90;85.90;;;;;;5036000;28;20049;-82
2021/01/27 13:15:36;;;;;;;2.92;0.70;;;2.80;86.60;;;;;;5039096;28;20069;-81
2021/01/27 13:18:03;;;;;;;1.00;0.47;;;2.80;86.50;;;;;;5018705;28;20091;-81
2021/01/27 13:20:31;;;;;;;0.80;0.50;;;2.80;86.50;;;;;;5035755;28;20049;-80
2021/01/27 13:23:00;;;;;;;1.40;0.70;;;2.70;86.80;;;;;;5034564;28;20088;-81
2021/01/27 13:25:33;;;;;;;1.45;0.50;;;2.60;87.60;;;;;;5034508;28;20276;-84
2021/01/27 13:28:02;;;;;;;3.40;0.70;;;2.60;87.40;;;;;;5022222;28;20156;-83
2021/01/27 13:30:30;;;;;;;1.60;0.57;;;2.60;87.30;;;;;;5034271;28;20037;-84